Show Low, AZ (85901)

09:47 AM MST am 27. August 2016 (GMT -0700)
Torreon | | Change Station

Höhe 6391 ft 34.25 °N, 110.09 °W | Updated 10 minutes ago

Light Thunderstorms and Rain
Leichte Gewitter mit Regen
53.4 °F
gefühlte 53.4 °F
N
8.0
Wind Wechselnd Wind aus Nord-Nordost
Gusts 9.0 mph

Heute
Max. -- | schwach -- °F
--% Regenrisiko
Gestern
Max. -- | schwach -- °F
Precip. -- inch
Druck 30.32 inch
Sichtweite 3.0 Meilen
Wolken Few 400 ft
Wolkig 1300 ft
Bedeckt 4200 ft
Taupunkt 51 °F
Feuchtigkeit 91%
Regen 0.18 inch
Schneehöhe Nicht verfügbar..
5:50 AM 6:52 PM
Letztes Viertel, 23% visible
METAR KSOW 271635Z AUTO 29018G22KT 3SM -TSRA FEW004 BKN013 OVC042 12/09 A3032 RMK AO2 LTG DSNT ALQDS P0004
Druck 30.32 inch
Sichtweite 3.0 Meilen
Wolken Few 400 ft
Wolkig 1300 ft
Bedeckt 4200 ft
Taupunkt 51 °F
Feuchtigkeit 91%
Regen 0.18 inch
Schneehöhe Nicht verfügbar..
5:50 AM 6:52 PM
Letztes Viertel, 23% visible
METAR KSOW 271635Z AUTO 29018G22KT 3SM -TSRA FEW004 BKN013 OVC042 12/09 A3032 RMK AO2 LTG DSNT ALQDS P0004

10-Day Weather Forecast

Almanac

Astronomie

Aug. 27, 2016 Aufgang Untergang
Genaue Zeit
Bürgerliche Dämmerung
Nautische Dämmerung
Astronomische Dämmerung
Mond
Länge des sichtbaren Lichts
Tageslänge
Tomorrow will be .
, % of the Moon is Illuminated

Heutige Rekorde

State Highs State Lows

Community

WunderPhotos

Upload Photos

1,935,377 Fotos hochgeladen!

WunderBlog® & News

Nearby

Luftqualität

  Luftqualität LQ Index Schadstoff
Not available.

Schneehöhe

Station Depth Höhe

Erdbebenaktivität

Stadt Distance Mag. Time & Date
Minimum magnitude displayed is 2.5.

küstennahe Wassertemperaturen

Ort Temperatur

Stations

Wetterstationen in der Umgebung

Stationsstandort Temp. Windchill Taupunkt Feuchtigkeit Wind Precip. Höhe Aktualisiert Art
                   

Watches & Warnings

There are currently no watches in effect.